Stadt Gera — C4XY2 — position and weather

sailwx.info

Track history (hours):
 
Tides and Currents Weather Stations Pressure Air Temp Water Temp Dewpoint Dewpoint Depression Visibility Wind Speed Wind Dir Waves Ship Positions

Stadt Gera

Last reported at 2014-Aug-27 11:22 UTC. Time now 2014-Oct-31 04:54 UTC.
Position N 25°43' W 079°34'.
Warning: this ship's position is months out of date.

Length 167 m; draft 9.1 m.

Type: Ship (hazmat cat A). MMSI: 210235000.

Date/timePositionNaut miles runAvg speedWind from/ knotsBaromVisibWave heightAir tempDewpointWater temp
2014-Aug-27 11:22N 25°43' W 079°34'1012.8
2014-Aug-27 10:34N 25°53' W 079°32'1312.9
2014-Aug-27 09:34N 26°06' W 079°30'1313.0
2014-Aug-27 08:33N 26°19' W 079°29'  
2014-Aug-24 20:07N 34°21' W 076°16'813.5
2014-Aug-24 19:30N 34°27' W 076°08'14510.4
2014-Aug-24 05:30N 36°51' W 075°52'1211.9
2014-Aug-24 04:31N 36°58' W 076°04'1313.3
2014-Aug-24 03:33N 36°58' W 076°20'5 4.7
2014-Aug-24 02:27N 36°53' W 076°21'0 0.0
2014-Aug-24 01:06N 36°53' W 076°21'136 4.9
2014-Aug-22 21:26N 34°39' W 075°52'1416.2
2014-Aug-22 20:33N 34°29' W 076°05'1616.4
2014-Aug-22 19:33N 34°18' W 076°19'1616.3
2014-Aug-22 18:33N 34°07' W 076°33'1616.4
2014-Aug-22 17:33N 33°55' W 076°47'1616.1
2014-Aug-22 16:33N 33°45' W 077°02'1615.9
2014-Aug-22 15:33N 33°35' W 077°17'1816.2
2014-Aug-22 14:27N 33°23' W 077°33'1716.1
2014-Aug-22 13:25N 33°15' W 077°51'1416.3
2014-Aug-22 12:33N 33°07' W 078°05'1716.3
2014-Aug-22 11:32N 32°58' W 078°21'14614.6
2014-Aug-22 01:33N 32°05' W 081°03'6 5.8
2014-Aug-22 00:32N 32°08' W 081°08'0 0.0
2014-Aug-21 22:28N 32°08' W 081°09'0 0.0
2014-Aug-21 21:31N 32°08' W 081°09'0 0.0
2014-Aug-21 20:31N 32°08' W 081°09'0 0.0
2014-Aug-21 19:31N 32°08' W 081°09'0 0.0
2014-Aug-21 18:31N 32°08' W 081°09'0 0.0
2014-Aug-21 17:19N 32°08' W 081°09'0 0.0
2014-Aug-21 16:22N 32°08' W 081°09'0 0.0
2014-Aug-21 15:19N 32°08' W 081°09'0 0.0
2014-Aug-21 14:31N 32°08' W 081°09'0 0.0
2014-Aug-21 13:31N 32°08' W 081°09'0 0.0
2014-Aug-21 12:28N 32°08' W 081°09'0 0.0
2014-Aug-21 11:31N 32°08' W 081°09'0 0.0
2014-Aug-21 09:28N 32°08' W 081°09'4 4.3
2014-Aug-21 08:26N 32°05' W 081°05'  
Track history (hours):
 
Tides and Currents Weather Stations Pressure Air Temp Water Temp Dewpoint Dewpoint Depression Visibility Wind Speed Wind Dir Waves Ship Positions

Stadt Gera

Last reported at 2014-Aug-27 11:22 UTC. Time now 2014-Oct-31 04:54 UTC.
Position N 25°43' W 079°34'.
Warning: this ship's position is months out of date.

Length 167 m; draft 9.1 m.

Type: Ship (hazmat cat A). MMSI: 210235000.

Date/timePositionNaut miles runAvg speedWind from/ knotsBaromVisibWave heightAir tempDewpointWater temp
2014-Aug-27 11:22N 25°43' W 079°34'1012.8
2014-Aug-27 10:34N 25°53' W 079°32'1312.9
2014-Aug-27 09:34N 26°06' W 079°30'1313.0
2014-Aug-27 08:33N 26°19' W 079°29'  
2014-Aug-24 20:07N 34°21' W 076°16'813.5
2014-Aug-24 19:30N 34°27' W 076°08'14510.4
2014-Aug-24 05:30N 36°51' W 075°52'1211.9
2014-Aug-24 04:31N 36°58' W 076°04'1313.3
2014-Aug-24 03:33N 36°58' W 076°20'5 4.7
2014-Aug-24 02:27N 36°53' W 076°21'0 0.0
2014-Aug-24 01:06N 36°53' W 076°21'136 4.9
2014-Aug-22 21:26N 34°39' W 075°52'1416.2
2014-Aug-22 20:33N 34°29' W 076°05'1616.4
2014-Aug-22 19:33N 34°18' W 076°19'1616.3
2014-Aug-22 18:33N 34°07' W 076°33'1616.4
2014-Aug-22 17:33N 33°55' W 076°47'1616.1
2014-Aug-22 16:33N 33°45' W 077°02'1615.9
2014-Aug-22 15:33N 33°35' W 077°17'1816.2
2014-Aug-22 14:27N 33°23' W 077°33'1716.1
2014-Aug-22 13:25N 33°15' W 077°51'1416.3
2014-Aug-22 12:33N 33°07' W 078°05'1716.3
2014-Aug-22 11:32N 32°58' W 078°21'14614.6
2014-Aug-22 01:33N 32°05' W 081°03'6 5.8
2014-Aug-22 00:32N 32°08' W 081°08'0 0.0
2014-Aug-21 22:28N 32°08' W 081°09'0 0.0
2014-Aug-21 21:31N 32°08' W 081°09'0 0.0
2014-Aug-21 20:31N 32°08' W 081°09'0 0.0
2014-Aug-21 19:31N 32°08' W 081°09'0 0.0
2014-Aug-21 18:31N 32°08' W 081°09'0 0.0
2014-Aug-21 17:19N 32°08' W 081°09'0 0.0
2014-Aug-21 16:22N 32°08' W 081°09'0 0.0
2014-Aug-21 15:19N 32°08' W 081°09'0 0.0
2014-Aug-21 14:31N 32°08' W 081°09'0 0.0
2014-Aug-21 13:31N 32°08' W 081°09'0 0.0
2014-Aug-21 12:28N 32°08' W 081°09'0 0.0
2014-Aug-21 11:31N 32°08' W 081°09'0 0.0
2014-Aug-21 09:28N 32°08' W 081°09'4 4.3
2014-Aug-21 08:26N 32°05' W 081°05'  

Dump ship's entire track history